createdAt,value
2023-03-26T00:00:12.456Z,4.25
2023-03-26T00:02:16.667Z,4.68
2023-03-26T00:04:21.898Z,7.10
2023-03-26T00:06:27.637Z,6.20
2023-03-26T00:08:29.118Z,6.15
2023-03-26T00:10:33.185Z,4.35
2023-03-26T00:12:37.161Z,5.28
2023-03-26T00:16:43.182Z,2.58
2023-03-26T00:18:45.433Z,4.10
2023-03-26T00:20:50.043Z,3.60
2023-03-26T00:22:55.209Z,4.18
2023-03-26T00:25:15.950Z,4.72
2023-03-26T00:27:17.684Z,4.55
2023-03-26T00:29:27.876Z,6.50
2023-03-26T00:31:29.352Z,4.30
2023-03-26T00:33:38.257Z,2.80
2023-03-26T00:37:46.123Z,2.72
2023-03-26T09:03:19.725Z,0.28
2023-03-26T09:06:05.487Z,0.20
2023-03-26T09:08:37.891Z,0.10
2023-03-26T09:11:13.065Z,0.17
2023-03-26T09:13:45.942Z,0.50
2023-03-26T09:16:36.015Z,0.10
2023-03-26T09:19:08.958Z,0.10
2023-03-26T09:21:27.584Z,0.10
2023-03-26T09:23:43.380Z,0.20
2023-03-26T09:26:17.416Z,0.43
2023-03-26T09:28:34.705Z,0.13
2023-03-26T09:31:08.735Z,0.13
2023-03-26T09:33:33.731Z,0.03
2023-03-26T09:36:05.659Z,0.20
2023-03-26T09:38:31.446Z,0.13
2023-03-26T09:40:49.195Z,0.00
2023-03-26T09:43:16.041Z,0.10
2023-03-26T09:45:32.663Z,0.20
2023-03-26T09:47:41.343Z,0.10
2023-03-26T09:50:09.008Z,0.10
2023-03-26T09:52:22.587Z,0.17
2023-03-26T09:54:36.860Z,0.35
2023-03-26T09:56:58.807Z,0.20
2023-03-26T09:59:13.836Z,0.10
2023-03-26T10:01:19.188Z,0.15
2023-03-26T10:03:41.044Z,0.22
2023-03-26T10:05:52.484Z,0.20
2023-03-26T10:08:15.336Z,0.13
2023-03-26T10:10:31.786Z,0.28
2023-03-26T10:12:38.293Z,0.20
2023-03-26T10:14:47.612Z,0.20
2023-03-26T10:17:25.519Z,0.30
2023-03-26T10:19:42.132Z,0.20
2023-03-26T10:21:53.336Z,0.30
2023-03-26T10:24:03.445Z,0.30
2023-03-26T10:26:11.150Z,0.15
2023-03-26T10:28:28.000Z,0.20
2023-03-26T10:30:44.550Z,0.10
2023-03-26T10:33:07.839Z,0.60
2023-03-26T10:35:09.388Z,0.10
2023-03-26T10:39:39.448Z,0.28
2023-03-26T10:44:08.724Z,0.20
2023-03-26T10:46:31.963Z,0.10
2023-03-26T10:48:49.092Z,0.30
2023-03-26T10:51:15.729Z,0.10
2023-03-26T10:53:28.722Z,0.00
2023-03-26T10:55:46.635Z,0.10
2023-03-26T10:57:53.285Z,0.00
2023-03-26T11:02:01.564Z,0.13
2023-03-26T11:04:11.065Z,0.08
2023-03-26T11:06:35.419Z,0.13
2023-03-26T11:08:41.067Z,0.20
2023-03-26T11:10:42.689Z,0.10
2023-03-26T11:12:47.235Z,0.10
2023-03-26T11:15:09.829Z,0.00
2023-03-26T11:17:40.466Z,0.00
2023-03-26T11:19:53.213Z,0.10
2023-03-26T11:22:01.486Z,0.08
2023-03-26T11:24:21.004Z,0.00
2023-03-26T11:26:44.333Z,0.10
2023-03-26T11:29:03.573Z,0.00
2023-03-26T11:31:27.949Z,0.00
2023-03-26T11:33:34.973Z,0.03
2023-03-26T11:35:58.736Z,0.00
2023-03-26T11:38:23.963Z,0.00
2023-03-26T11:40:41.845Z,0.10
2023-03-26T11:42:43.872Z,0.20
2023-03-26T11:45:07.932Z,0.20
2023-03-26T11:47:40.483Z,0.10
2023-03-26T11:49:45.532Z,0.10
2023-03-26T11:51:49.716Z,0.08
2023-03-26T11:53:54.526Z,0.13
2023-03-26T11:55:58.511Z,0.10
2023-03-26T11:58:11.189Z,0.17
2023-03-26T12:00:21.238Z,0.10
2023-03-26T12:02:23.036Z,0.00
2023-03-26T12:04:33.746Z,0.08
2023-03-26T12:06:36.296Z,0.20
2023-03-26T12:08:47.773Z,0.10
2023-03-26T12:11:14.207Z,0.20
2023-03-26T12:13:37.299Z,0.35
2023-03-26T12:15:48.306Z,0.00
2023-03-26T12:18:13.801Z,0.10
2023-03-26T12:20:49.384Z,0.30
2023-03-26T12:23:12.503Z,0.17
2023-03-26T12:25:35.476Z,0.10
2023-03-26T12:28:15.416Z,0.10
2023-03-26T12:30:35.519Z,0.17
2023-03-26T12:32:48.591Z,0.20
2023-03-26T12:35:12.155Z,0.40
2023-03-26T12:37:49.397Z,0.85
2023-03-26T12:40:22.344Z,0.30
2023-03-26T12:44:55.067Z,0.20
2023-03-26T12:45:42.688Z,0.28
2023-03-26T12:48:03.492Z,0.17
2023-03-26T12:50:16.833Z,0.20
2023-03-26T12:52:38.269Z,0.30
2023-03-26T12:54:48.368Z,0.20
2023-03-26T12:56:49.914Z,0.30
2023-03-26T12:59:11.888Z,0.20
2023-03-26T13:01:40.212Z,0.10
2023-03-26T13:03:47.730Z,0.20
2023-03-26T13:06:01.101Z,0.40
2023-03-26T13:08:05.411Z,0.30
2023-03-26T13:10:24.869Z,0.30
2023-03-26T13:12:41.022Z,0.30
2023-03-26T13:14:45.741Z,0.25
2023-03-26T13:16:47.698Z,0.28
2023-03-26T13:18:49.182Z,0.20
2023-03-26T13:21:19.420Z,0.57
2023-03-26T13:23:23.656Z,0.50
2023-03-26T13:25:44.104Z,0.30
2023-03-26T13:27:54.114Z,0.65
2023-03-26T13:30:01.683Z,0.20
2023-03-26T13:32:12.629Z,0.57
2023-03-26T13:34:19.531Z,0.68
2023-03-26T13:36:24.259Z,0.30
2023-03-26T13:38:38.427Z,0.47
2023-03-26T13:41:04.594Z,0.38
2023-03-26T13:43:40.036Z,0.60
2023-03-26T13:45:47.398Z,0.50
2023-03-26T13:47:50.445Z,1.00
2023-03-26T13:50:17.996Z,0.73
2023-03-26T13:52:45.729Z,0.50
2023-03-26T13:54:52.161Z,0.80
2023-03-26T13:57:02.993Z,0.57
2023-03-26T13:59:28.849Z,0.55
2023-03-26T14:01:41.404Z,0.35
2023-03-26T14:03:49.406Z,0.57
2023-03-26T14:05:55.919Z,0.70
2023-03-26T14:08:10.688Z,1.35
2023-03-26T14:10:15.157Z,0.50
2023-03-26T14:12:25.272Z,0.68
2023-03-26T14:14:53.078Z,0.57
2023-03-26T14:16:59.268Z,0.85
2023-03-26T14:19:19.383Z,0.70
2023-03-26T14:21:26.540Z,0.93
2023-03-26T14:23:38.943Z,0.88
2023-03-26T14:25:40.466Z,0.75
2023-03-26T14:27:50.863Z,0.47
2023-03-26T14:29:57.587Z,0.75
2023-03-26T14:32:14.275Z,0.70
2023-03-26T14:34:34.306Z,0.80
2023-03-26T14:36:35.763Z,0.60
2023-03-26T14:38:56.592Z,0.60
2023-03-26T14:40:58.560Z,0.93
2023-03-26T14:43:08.917Z,1.00
2023-03-26T14:45:30.443Z,1.02
2023-03-26T14:47:57.741Z,1.02
2023-03-26T14:50:04.770Z,1.00
2023-03-26T14:52:16.215Z,1.52
2023-03-26T14:54:20.053Z,1.25
2023-03-26T14:56:24.340Z,1.25
2023-03-26T14:58:59.410Z,2.05
2023-03-26T15:01:15.927Z,1.35
2023-03-26T15:03:39.306Z,1.63
2023-03-26T15:06:02.109Z,0.88
2023-03-26T15:08:06.311Z,1.63
2023-03-26T15:10:21.497Z,1.52
2023-03-26T15:12:41.902Z,0.90
2023-03-26T15:14:46.049Z,0.57
2023-03-26T15:16:55.104Z,1.20
2023-03-26T15:19:18.986Z,1.13
2023-03-26T15:21:27.248Z,1.00
2023-03-26T15:23:37.427Z,1.00
2023-03-26T15:25:39.823Z,2.55
2023-03-26T15:27:50.599Z,1.00
2023-03-26T15:30:13.553Z,0.75
2023-03-26T15:32:30.306Z,0.88
2023-03-26T15:34:42.477Z,1.10
2023-03-26T15:36:56.539Z,1.90
2023-03-26T15:39:18.908Z,0.82
2023-03-26T15:41:48.203Z,1.00
2023-03-26T15:44:23.048Z,2.33
2023-03-26T15:46:26.343Z,1.33
2023-03-26T15:48:49.315Z,1.73
2023-03-26T15:50:56.775Z,2.05
2023-03-26T15:53:11.802Z,1.58
2023-03-26T15:55:16.903Z,1.80
2023-03-26T15:57:21.297Z,3.13
2023-03-26T15:59:44.749Z,1.88
2023-03-26T16:02:02.420Z,2.13
2023-03-26T16:04:09.105Z,1.58
2023-03-26T16:06:31.260Z,2.50
2023-03-26T16:10:44.662Z,1.40
2023-03-26T16:13:23.403Z,1.85
2023-03-26T16:15:35.173Z,3.58
2023-03-26T16:18:01.053Z,1.85
2023-03-26T16:20:22.350Z,2.33
2023-03-26T16:22:42.431Z,2.25
2023-03-26T16:25:27.070Z,2.65
2023-03-26T16:27:32.260Z,1.88
2023-03-26T16:29:34.548Z,2.05
2023-03-26T16:31:37.871Z,2.97
2023-03-26T16:33:57.055Z,2.30
2023-03-26T16:36:18.459Z,2.63
2023-03-26T16:38:24.895Z,2.20
2023-03-26T16:40:33.433Z,3.47
2023-03-26T16:42:38.534Z,3.17
2023-03-26T16:44:42.959Z,2.03
2023-03-26T16:47:00.260Z,2.35
2023-03-26T16:49:07.383Z,1.95
2023-03-26T16:51:17.111Z,1.92
2023-03-26T16:53:38.585Z,1.58
2023-03-26T16:55:46.851Z,2.53
2023-03-26T16:57:56.495Z,1.98
2023-03-26T17:00:31.398Z,1.88
2023-03-26T17:02:48.095Z,3.28
2023-03-26T17:04:52.186Z,1.70
2023-03-26T17:07:05.758Z,1.90
2023-03-26T17:09:28.461Z,1.90
2023-03-26T17:11:42.523Z,1.10
2023-03-26T17:14:03.351Z,1.45
2023-03-26T17:16:10.989Z,2.42
2023-03-26T17:18:32.168Z,1.58
2023-03-26T17:20:33.920Z,1.48
2023-03-26T17:22:44.421Z,1.27
2023-03-26T17:24:51.049Z,1.15
2023-03-26T17:27:00.923Z,1.90
2023-03-26T17:29:24.084Z,1.00
2023-03-26T17:31:37.744Z,1.02
2023-03-26T17:33:42.081Z,5.15
2023-03-26T17:35:43.733Z,1.27
2023-03-26T17:38:04.778Z,1.23
2023-03-26T17:40:26.183Z,2.00
2023-03-26T17:43:03.608Z,1.20
2023-03-26T17:45:08.129Z,1.10
2023-03-26T17:47:39.034Z,1.50
2023-03-26T17:49:44.118Z,1.48
2023-03-26T17:51:55.609Z,1.73
2023-03-26T17:54:01.753Z,2.15
2023-03-26T17:56:12.415Z,2.88
2023-03-26T17:58:21.023Z,2.33
2023-03-26T18:00:25.780Z,1.55
2023-03-26T18:02:37.993Z,2.00
2023-03-26T18:04:45.069Z,1.83
2023-03-26T18:06:52.507Z,3.25
2023-03-26T18:09:06.133Z,2.10
2023-03-26T18:11:12.420Z,2.72
2023-03-26T18:13:22.774Z,1.73
2023-03-26T18:15:33.633Z,1.70
2023-03-26T18:17:45.932Z,1.73
2023-03-26T18:19:56.560Z,3.70
2023-03-26T18:21:59.477Z,1.55
2023-03-26T18:24:05.323Z,1.50
2023-03-26T18:26:11.612Z,1.50
2023-03-26T18:28:34.840Z,1.55
2023-03-26T18:30:44.846Z,1.50
2023-03-26T18:33:01.737Z,2.03
2023-03-26T18:35:20.725Z,1.58
2023-03-26T18:37:36.126Z,1.83
2023-03-26T18:39:41.984Z,1.60
2023-03-26T18:41:44.685Z,1.50
2023-03-26T18:43:46.230Z,1.75
2023-03-26T18:45:51.711Z,2.58
2023-03-26T18:47:54.694Z,2.50
2023-03-26T18:49:57.057Z,1.85
2023-03-26T18:52:01.183Z,2.97
2023-03-26T18:54:04.841Z,2.63
2023-03-26T18:56:19.744Z,2.30
2023-03-26T18:58:25.191Z,2.00
2023-03-26T19:00:45.480Z,1.92
2023-03-26T19:02:51.576Z,1.27
2023-03-26T19:04:56.758Z,1.80
2023-03-26T19:07:01.645Z,2.03
2023-03-26T19:09:19.610Z,1.55
2023-03-26T19:11:28.825Z,2.22
2023-03-26T19:13:31.179Z,1.40
2023-03-26T19:15:35.873Z,1.88
2023-03-26T19:17:39.773Z,1.50
2023-03-26T19:19:42.557Z,1.20
2023-03-26T19:21:44.349Z,1.75
2023-03-26T19:23:49.842Z,3.00
2023-03-26T19:25:59.766Z,2.05
2023-03-26T19:28:11.624Z,2.13
2023-03-26T19:30:33.834Z,2.35
2023-03-26T19:32:38.100Z,3.10
2023-03-26T19:34:39.940Z,2.38
2023-03-26T19:36:58.306Z,1.70
2023-03-26T19:38:59.903Z,2.00
2023-03-26T19:41:04.697Z,2.30
2023-03-26T19:43:11.694Z,2.92
2023-03-26T19:45:18.174Z,2.33
2023-03-26T19:47:35.379Z,3.92
2023-03-26T19:49:53.399Z,3.83
2023-03-26T19:52:15.276Z,2.70
2023-03-26T19:54:16.756Z,3.22
2023-03-26T19:56:19.256Z,2.67
2023-03-26T19:58:40.498Z,3.17
2023-03-26T20:00:41.932Z,3.63
2023-03-26T20:02:46.457Z,2.67
2023-03-26T20:04:48.388Z,5.20
2023-03-26T20:06:49.870Z,2.65
2023-03-26T20:08:52.122Z,2.92
2023-03-26T20:10:54.732Z,2.78
2023-03-26T20:13:00.327Z,2.42
2023-03-26T20:15:22.625Z,4.13
2023-03-26T20:17:27.183Z,4.38
2023-03-26T20:19:31.750Z,2.85
2023-03-26T20:21:38.166Z,2.63
2023-03-26T20:23:40.705Z,2.58
2023-03-26T20:25:46.458Z,3.15
2023-03-26T20:27:53.108Z,2.72
2023-03-26T20:29:54.611Z,2.92
2023-03-26T20:31:56.269Z,2.58
2023-03-26T20:33:58.040Z,2.95
2023-03-26T20:36:11.380Z,3.63
2023-03-26T20:38:13.046Z,3.20
2023-03-26T20:40:33.712Z,3.17
2023-03-26T20:42:36.321Z,3.42
2023-03-26T20:44:56.652Z,2.45
2023-03-26T20:47:01.478Z,3.10
2023-03-26T20:49:06.657Z,3.40
2023-03-26T20:51:09.880Z,3.38
2023-03-26T20:53:16.359Z,3.97
2023-03-26T20:55:23.841Z,3.00
2023-03-26T20:57:28.022Z,3.85
2023-03-26T20:59:30.014Z,5.30
2023-03-26T21:01:34.502Z,5.70
2023-03-26T21:03:36.398Z,6.97
2023-03-26T21:05:41.080Z,5.97
2023-03-26T21:08:01.390Z,7.38
2023-03-26T21:10:03.544Z,8.07
2023-03-26T21:12:09.692Z,6.97
2023-03-26T21:14:44.204Z,5.30
2023-03-26T21:16:46.005Z,4.00
2023-03-26T21:18:51.673Z,4.10
2023-03-26T21:20:59.812Z,4.82
2023-03-26T21:23:30.370Z,5.88
2023-03-26T21:25:52.870Z,4.45
2023-03-26T21:28:19.428Z,3.47
2023-03-26T21:30:32.229Z,4.35
2023-03-26T21:32:43.634Z,4.53
2023-03-26T21:37:12.239Z,4.15
2023-03-26T21:39:31.627Z,3.83
2023-03-26T21:41:46.745Z,3.53
2023-03-26T21:43:52.311Z,4.13
2023-03-26T21:46:09.240Z,3.95
2023-03-26T21:48:24.364Z,4.57
2023-03-26T21:50:38.855Z,3.80
2023-03-26T21:52:59.719Z,3.55
2023-03-26T21:55:18.899Z,3.05
2023-03-26T21:57:40.990Z,3.80
2023-03-26T22:00:21.857Z,3.38
2023-03-26T22:02:49.233Z,2.78
2023-03-26T22:05:08.670Z,2.78
2023-03-26T22:07:23.298Z,3.22
2023-03-26T22:09:55.892Z,2.95
2023-03-26T22:12:02.072Z,4.00
2023-03-26T22:14:03.548Z,3.60
2023-03-26T22:16:11.670Z,3.10
2023-03-26T22:18:32.739Z,3.33
2023-03-26T22:20:34.445Z,4.07
2023-03-26T22:22:39.656Z,4.95
2023-03-26T22:24:44.092Z,4.45
2023-03-26T22:26:48.480Z,4.03
2023-03-26T22:28:50.352Z,4.18
2023-03-26T22:30:52.391Z,3.05
2023-03-26T22:32:56.878Z,6.20
2023-03-26T22:35:01.830Z,3.05
2023-03-26T22:37:05.434Z,3.53
2023-03-26T22:39:07.297Z,3.30
2023-03-26T22:41:27.472Z,3.38
2023-03-26T22:43:47.754Z,3.80
2023-03-26T22:45:53.705Z,3.20
2023-03-26T22:48:04.030Z,2.70
2023-03-26T22:50:25.940Z,2.55
2023-03-26T22:52:27.863Z,3.35
2023-03-26T22:54:32.002Z,2.97
2023-03-26T22:56:52.337Z,3.03
2023-03-26T22:58:53.905Z,2.95
2023-03-26T23:01:16.874Z,2.95
2023-03-26T23:03:22.016Z,3.60
2023-03-26T23:05:40.533Z,3.17
2023-03-26T23:07:46.051Z,3.33
2023-03-26T23:09:47.744Z,3.08
2023-03-26T23:11:49.169Z,3.45
2023-03-26T23:13:51.196Z,2.83
2023-03-26T23:15:57.024Z,4.32
2023-03-26T23:18:01.952Z,3.38
2023-03-26T23:20:17.572Z,3.95
2023-03-26T23:22:19.393Z,3.38
2023-03-26T23:24:21.094Z,2.78
2023-03-26T23:26:23.014Z,3.47
2023-03-26T23:28:30.236Z,3.85
2023-03-26T23:30:35.664Z,2.88
2023-03-26T23:32:41.039Z,4.00
2023-03-26T23:35:00.930Z,3.15
2023-03-26T23:37:03.053Z,3.22
2023-03-26T23:39:08.372Z,3.03
2023-03-26T23:41:10.006Z,2.55
2023-03-26T23:43:11.674Z,2.55
2023-03-26T23:45:13.381Z,2.88
2023-03-26T23:47:22.144Z,3.08
2023-03-26T23:49:24.243Z,2.45
2023-03-26T23:51:25.805Z,3.92
2023-03-26T23:53:31.896Z,2.97
2023-03-26T23:55:36.587Z,2.53
2023-03-26T23:57:38.123Z,2.58
2023-03-26T23:59:43.653Z,3.05
